createdAt,value
2018-08-12T00:02:08.243Z,64.47
2018-08-12T00:04:37.060Z,65.22
2018-08-12T00:07:06.102Z,63.99
2018-08-12T00:09:34.961Z,63.86
2018-08-12T00:12:05.203Z,64.80
2018-08-12T00:14:34.283Z,64.26
2018-08-12T00:17:03.186Z,64.02
2018-08-12T00:19:32.028Z,63.57
2018-08-12T00:22:00.848Z,64.72
2018-08-12T00:27:04.362Z,65.26
2018-08-12T00:29:33.185Z,64.33
2018-08-12T00:32:02.149Z,64.42
2018-08-12T00:37:19.819Z,63.27
2018-08-12T00:40:01.747Z,63.24
2018-08-12T00:42:36.707Z,64.56
2018-08-12T00:45:14.666Z,64.21
2018-08-12T00:47:47.465Z,65.20
2018-08-12T00:50:22.767Z,64.96
2018-08-12T00:53:04.045Z,64.04
2018-08-12T00:55:38.979Z,64.86
2018-08-12T00:58:16.068Z,63.67
2018-08-12T01:00:54.095Z,63.93
2018-08-12T01:03:31.061Z,64.92
2018-08-12T01:06:04.611Z,63.43
2018-08-12T01:08:40.225Z,64.14
2018-08-12T01:11:20.802Z,63.76
2018-08-12T01:13:59.308Z,63.85
2018-08-12T01:16:38.967Z,63.21
2018-08-12T01:19:16.934Z,62.84
2018-08-12T01:21:51.512Z,62.97
2018-08-12T01:24:30.946Z,63.92
2018-08-12T01:27:13.018Z,63.99
2018-08-12T01:29:51.552Z,65.07
2018-08-12T01:32:28.342Z,64.86
2018-08-12T01:35:06.092Z,64.79
2018-08-12T01:37:42.381Z,63.45
2018-08-12T01:40:22.945Z,64.36
2018-08-12T01:43:01.748Z,64.84
2018-08-12T01:48:22.240Z,65.18
2018-08-12T01:50:58.315Z,65.53
2018-08-12T01:53:34.224Z,64.72
2018-08-12T01:56:12.512Z,65.21
2018-08-12T01:58:55.023Z,64.36
2018-08-12T02:01:30.442Z,64.39
2018-08-12T02:04:06.201Z,64.50
2018-08-12T02:09:24.165Z,65.48
2018-08-12T02:12:03.568Z,65.13
2018-08-12T02:14:40.847Z,65.67
2018-08-12T02:17:16.355Z,65.24
2018-08-12T02:22:41.861Z,64.78
2018-08-12T02:25:17.328Z,65.43
2018-08-12T02:27:57.402Z,65.11
2018-08-12T02:30:38.826Z,65.52
2018-08-12T02:33:16.155Z,63.79
2018-08-12T02:35:50.069Z,64.78
2018-08-12T02:38:26.949Z,64.22
2018-08-12T02:41:04.939Z,64.71
2018-08-12T02:43:42.212Z,64.54
2018-08-12T02:46:16.870Z,64.25
2018-08-12T02:48:51.729Z,63.03
2018-08-12T02:51:30.402Z,62.96
2018-08-12T02:54:05.671Z,62.71
2018-08-12T02:56:42.297Z,63.39
2018-08-12T02:59:21.655Z,64.28
2018-08-12T03:01:57.038Z,64.25
2018-08-12T03:04:32.748Z,63.89
2018-08-12T03:07:10.015Z,62.80
2018-08-12T03:12:16.040Z,63.67
2018-08-12T03:14:51.219Z,64.11
2018-08-12T03:17:26.652Z,64.98
2018-08-12T03:20:02.517Z,63.88
2018-08-12T03:22:31.525Z,64.52
2018-08-12T03:25:00.439Z,64.76
2018-08-12T03:27:29.333Z,64.75
2018-08-12T03:29:59.152Z,64.75
2018-08-12T03:32:27.948Z,63.93
2018-08-12T03:34:56.916Z,64.87
2018-08-12T03:37:25.806Z,64.39
2018-08-12T03:39:54.715Z,64.82
2018-08-12T03:42:23.557Z,63.91
2018-08-12T03:44:52.528Z,63.84
2018-08-12T03:47:21.290Z,64.14
2018-08-12T03:49:50.155Z,63.00
2018-08-12T03:52:19.119Z,63.84
2018-08-12T03:54:48.125Z,64.19
2018-08-12T03:57:16.929Z,64.24
2018-08-12T03:59:46.816Z,63.94
2018-08-12T04:07:13.156Z,66.49
2018-08-12T04:09:42.004Z,65.97
2018-08-12T04:12:11.835Z,65.82
2018-08-12T04:14:40.867Z,66.24
2018-08-12T04:17:09.860Z,65.95
2018-08-12T04:19:39.131Z,65.39
2018-08-12T04:22:09.129Z,65.43
2018-08-12T04:24:38.592Z,65.09
2018-08-12T04:27:07.647Z,65.07
2018-08-12T04:29:36.627Z,64.19
2018-08-12T04:32:05.630Z,63.85
2018-08-12T04:34:35.022Z,64.19
2018-08-12T04:37:04.966Z,63.87
2018-08-12T04:39:33.893Z,63.62
2018-08-12T04:42:04.374Z,64.33
2018-08-12T04:47:07.648Z,65.03
2018-08-12T04:49:36.499Z,64.67
2018-08-12T04:52:07.929Z,65.44
2018-08-12T04:54:36.833Z,65.05
2018-08-12T04:57:06.709Z,63.77
2018-08-12T04:59:35.544Z,64.06
2018-08-12T05:02:04.504Z,63.93
2018-08-12T05:04:34.598Z,64.85
2018-08-12T05:09:38.139Z,65.55
2018-08-12T05:12:07.570Z,64.97
2018-08-12T05:14:36.456Z,64.76
2018-08-12T05:17:05.312Z,64.90
2018-08-12T05:19:34.928Z,63.90
2018-08-12T05:22:03.760Z,63.95
2018-08-12T05:24:32.700Z,63.87
2018-08-12T05:27:01.681Z,62.89
2018-08-12T05:29:30.666Z,61.88
2018-08-12T05:31:59.792Z,62.59
2018-08-12T05:34:29.470Z,62.32
2018-08-12T05:36:58.464Z,62.40
2018-08-12T05:39:27.351Z,61.33
2018-08-12T05:41:56.504Z,62.12
2018-08-12T05:44:25.335Z,60.96
2018-08-12T05:46:54.549Z,61.21
2018-08-12T05:49:23.552Z,61.38
2018-08-12T05:51:53.345Z,61.22
2018-08-12T05:54:23.570Z,61.90
2018-08-12T05:56:53.265Z,61.96
2018-08-12T06:01:57.543Z,61.07
2018-08-12T06:04:26.365Z,59.53
2018-08-12T06:06:55.248Z,57.92
2018-08-12T06:09:30.800Z,59.82
2018-08-12T06:11:59.621Z,60.16
2018-08-12T06:14:29.892Z,60.56
2018-08-12T06:17:00.368Z,58.98
2018-08-12T06:19:29.148Z,60.03
2018-08-12T06:21:58.019Z,58.93
2018-08-12T06:24:27.562Z,60.07
2018-08-12T06:26:56.628Z,59.69
2018-08-12T06:29:26.571Z,58.77
2018-08-12T06:31:55.437Z,59.01
2018-08-12T06:34:24.384Z,59.76
2018-08-12T06:36:53.328Z,58.98
2018-08-12T06:39:22.264Z,58.16
2018-08-12T06:41:51.204Z,55.80
2018-08-12T06:44:20.645Z,55.90
2018-08-12T06:46:49.569Z,57.00
2018-08-12T06:49:19.312Z,57.82
2018-08-12T06:51:48.279Z,57.19
2018-08-12T06:54:17.186Z,57.56
2018-08-12T06:56:46.077Z,56.36
2018-08-12T06:59:14.894Z,55.84
2018-08-12T07:01:43.877Z,56.81
2018-08-12T07:04:13.487Z,57.06
2018-08-12T07:06:42.675Z,55.31
2018-08-12T07:09:12.353Z,56.15
2018-08-12T07:11:41.217Z,55.24
2018-08-12T07:14:10.113Z,55.60
2018-08-12T07:16:38.951Z,55.17
2018-08-12T07:19:08.522Z,56.06
2018-08-12T07:21:38.010Z,54.57
2018-08-12T07:24:08.132Z,53.99
2018-08-12T07:26:37.030Z,52.91
2018-08-12T07:29:06.385Z,53.09
2018-08-12T07:31:36.506Z,53.95
2018-08-12T07:34:05.291Z,53.33
2018-08-12T07:36:34.900Z,53.43
2018-08-12T07:39:05.645Z,53.17
2018-08-12T07:41:35.828Z,52.98
2018-08-12T07:44:04.791Z,53.82
2018-08-12T07:46:34.289Z,53.36
2018-08-12T07:49:07.150Z,52.98
2018-08-12T07:51:39.034Z,51.49
2018-08-12T07:54:08.687Z,49.51
2018-08-12T07:56:39.362Z,50.90
2018-08-12T07:59:08.598Z,50.85
2018-08-12T08:01:37.737Z,51.27
2018-08-12T08:04:07.516Z,49.28
2018-08-12T08:06:41.965Z,50.17
2018-08-12T08:09:13.372Z,48.89
2018-08-12T08:11:43.438Z,46.69
2018-08-12T08:14:12.276Z,47.66
2018-08-12T08:16:41.187Z,46.44
2018-08-12T08:24:20.522Z,45.95
2018-08-12T08:26:49.400Z,46.92
2018-08-12T08:29:18.517Z,47.26
2018-08-12T08:31:49.005Z,46.57
2018-08-12T08:34:17.478Z,47.35
2018-08-12T08:36:48.054Z,47.10
2018-08-12T08:39:17.549Z,46.44
2018-08-12T08:41:46.369Z,45.78
2018-08-12T08:44:15.299Z,46.76
2018-08-12T08:46:44.143Z,44.75
2018-08-12T08:49:13.161Z,45.19
2018-08-12T08:51:41.990Z,44.70
2018-08-12T08:54:10.715Z,46.21
2018-08-12T08:56:39.565Z,47.29
2018-08-12T08:59:08.423Z,40.92
2018-08-12T09:01:37.512Z,44.21
2018-08-12T09:04:06.395Z,41.17
2018-08-12T09:06:35.304Z,42.50
2018-08-12T09:09:06.576Z,42.77
2018-08-12T09:11:35.174Z,41.69
2018-08-12T09:14:04.039Z,42.94
2018-08-12T09:16:33.229Z,42.94
2018-08-12T09:19:02.000Z,43.41
2018-08-12T09:21:31.701Z,40.27
2018-08-12T09:24:01.852Z,42.95
2018-08-12T09:26:31.556Z,40.91
2018-08-12T09:29:01.471Z,45.38
2018-08-12T09:31:31.634Z,44.23
2018-08-12T09:34:02.021Z,43.21
2018-08-12T09:36:31.502Z,41.37
2018-08-12T09:39:00.460Z,40.58
2018-08-12T09:41:29.512Z,40.24
2018-08-12T09:43:58.707Z,43.50
2018-08-12T09:46:27.681Z,43.37
2018-08-12T09:48:56.548Z,42.02
2018-08-12T09:51:25.452Z,41.57
2018-08-12T09:53:54.328Z,40.76
2018-08-12T09:56:23.417Z,42.29
2018-08-12T09:58:52.371Z,42.29
2018-08-12T10:01:21.195Z,39.53
2018-08-12T10:03:52.714Z,40.15
2018-08-12T10:06:21.603Z,39.29
2018-08-12T10:08:50.430Z,39.27
2018-08-12T10:11:20.029Z,39.32
2018-08-12T10:13:50.003Z,41.07
2018-08-12T10:16:19.427Z,43.20
2018-08-12T10:18:48.400Z,39.06
2018-08-12T10:21:17.414Z,40.58
2018-08-12T10:23:46.415Z,42.09
2018-08-12T10:26:15.425Z,43.68
2018-08-12T10:28:44.529Z,40.58
2018-08-12T10:31:17.303Z,42.48
2018-08-12T10:33:52.051Z,40.60
2018-08-12T10:36:21.053Z,39.41
2018-08-12T10:38:50.047Z,36.54
2018-08-12T10:41:18.992Z,37.96
2018-08-12T10:43:48.940Z,34.89
2018-08-12T10:46:17.901Z,36.23
2018-08-12T10:48:47.126Z,33.49
2018-08-12T10:51:16.414Z,38.65
2018-08-12T10:53:45.412Z,34.45
2018-08-12T10:56:14.397Z,34.89
2018-08-12T10:58:44.386Z,36.95
2018-08-12T11:01:13.359Z,36.23
2018-08-12T11:03:42.344Z,36.66
2018-08-12T11:06:11.439Z,34.40
2018-08-12T11:08:40.632Z,37.19
2018-08-12T11:11:09.731Z,34.88
2018-08-12T11:13:38.629Z,37.09
2018-08-12T11:16:07.713Z,39.00
2018-08-12T11:18:36.667Z,35.42
2018-08-12T11:21:07.251Z,34.03
2018-08-12T11:23:36.077Z,35.47
2018-08-12T11:26:05.308Z,33.73
2018-08-12T11:28:34.788Z,34.93
2018-08-12T11:31:04.397Z,34.61
2018-08-12T11:33:33.420Z,35.18
2018-08-12T11:36:11.651Z,34.19
2018-08-12T11:38:40.649Z,36.79
2018-08-12T11:41:10.330Z,35.32
2018-08-12T11:43:40.538Z,32.76
2018-08-12T11:46:10.337Z,35.00
2018-08-12T11:48:41.944Z,36.23
2018-08-12T11:51:10.947Z,33.23
2018-08-12T11:53:39.960Z,31.86
2018-08-12T11:56:08.778Z,34.70
2018-08-12T11:58:37.648Z,34.12
2018-08-12T12:01:06.896Z,33.33
2018-08-12T12:03:35.837Z,33.82
2018-08-12T12:06:06.004Z,34.75
2018-08-12T12:08:34.859Z,33.02
2018-08-12T12:11:05.269Z,32.44
2018-08-12T12:13:34.456Z,33.16
2018-08-12T12:16:03.688Z,33.53
2018-08-12T12:18:32.584Z,32.39
2018-08-12T12:21:03.985Z,32.58
2018-08-12T12:23:33.265Z,32.77
2018-08-12T12:26:02.821Z,35.23
2018-08-12T12:28:31.557Z,33.67
2018-08-12T12:31:00.448Z,32.40
2018-08-12T12:33:29.258Z,33.55
2018-08-12T12:35:58.248Z,33.19
2018-08-12T12:38:27.280Z,34.95
2018-08-12T12:40:56.188Z,33.98
2018-08-12T12:43:25.148Z,32.11
2018-08-12T12:45:55.088Z,33.26
2018-08-12T12:48:24.408Z,31.71
2018-08-12T12:50:54.016Z,34.12
2018-08-12T12:53:23.094Z,34.21
2018-08-12T12:55:51.977Z,32.50
2018-08-12T12:58:21.636Z,32.83
2018-08-12T13:00:57.080Z,33.24
2018-08-12T13:03:26.256Z,34.36
2018-08-12T13:05:56.193Z,34.34
2018-08-12T13:08:26.435Z,33.52
2018-08-12T13:10:56.559Z,32.07
2018-08-12T13:13:26.240Z,34.21
2018-08-12T13:15:56.826Z,31.95
2018-08-12T13:18:26.151Z,32.30
2018-08-12T13:20:56.784Z,32.25
2018-08-12T13:23:26.208Z,33.36
2018-08-12T13:25:56.639Z,34.45
2018-08-12T13:28:26.339Z,33.21
2018-08-12T13:30:56.430Z,32.66
2018-08-12T13:33:26.407Z,32.00
2018-08-12T13:35:56.494Z,30.56
2018-08-12T13:38:26.536Z,31.79
2018-08-12T13:40:56.668Z,30.89
2018-08-12T13:43:26.468Z,33.17
2018-08-12T13:45:56.453Z,32.51
2018-08-12T13:48:26.760Z,32.05
2018-08-12T13:50:56.481Z,33.45
2018-08-12T13:53:29.709Z,30.05
2018-08-12T13:55:58.722Z,32.55
2018-08-12T13:58:30.163Z,32.97
2018-08-12T14:00:59.871Z,32.66
2018-08-12T14:03:29.074Z,30.09
2018-08-12T14:06:00.687Z,30.92
2018-08-12T14:08:29.525Z,32.49
2018-08-12T14:10:59.090Z,32.97
2018-08-12T14:13:28.933Z,29.12
2018-08-12T14:15:59.161Z,29.41
2018-08-12T14:18:29.352Z,30.11
2018-08-12T14:21:03.672Z,31.10
2018-08-12T14:23:32.872Z,30.61
2018-08-12T14:26:02.122Z,32.13
2018-08-12T14:28:32.369Z,30.16
2018-08-12T14:31:01.915Z,31.95
2018-08-12T14:33:32.401Z,31.18
2018-08-12T14:36:01.840Z,31.11
2018-08-12T14:38:30.822Z,31.08
2018-08-12T14:40:59.777Z,31.99
2018-08-12T14:43:29.822Z,31.13
2018-08-12T14:45:58.910Z,30.34
2018-08-12T14:48:28.334Z,31.07
2018-08-12T14:50:58.395Z,30.42
2018-08-12T14:53:27.536Z,31.72
2018-08-12T14:55:57.799Z,31.92
2018-08-12T14:58:27.138Z,32.09
2018-08-12T15:00:56.631Z,33.74
2018-08-12T15:03:25.774Z,34.17
2018-08-12T15:05:54.895Z,33.87
2018-08-12T15:08:24.582Z,31.52
2018-08-12T15:10:53.407Z,32.49
2018-08-12T15:13:22.612Z,32.73
2018-08-12T15:15:51.573Z,31.63
2018-08-12T15:18:21.461Z,33.89
2018-08-12T15:20:50.491Z,31.00
2018-08-12T15:23:19.576Z,31.16
2018-08-12T15:25:48.868Z,31.84
2018-08-12T15:28:17.904Z,30.58
2018-08-12T15:30:47.756Z,30.04
2018-08-12T15:33:16.872Z,28.94
2018-08-12T15:35:47.081Z,29.88
2018-08-12T15:38:15.968Z,30.87
2018-08-12T15:40:45.168Z,29.95
2018-08-12T15:43:14.216Z,31.96
2018-08-12T15:45:44.520Z,31.30
2018-08-12T15:48:14.401Z,30.25
2018-08-12T15:50:43.663Z,30.93
2018-08-12T15:53:13.047Z,31.07
2018-08-12T15:55:43.111Z,30.79
2018-08-12T15:58:13.230Z,29.83
2018-08-12T16:00:43.260Z,31.01
2018-08-12T16:03:12.224Z,30.95
2018-08-12T16:05:41.467Z,32.86
2018-08-12T16:08:10.433Z,31.04
2018-08-12T16:10:40.466Z,32.81
2018-08-12T16:13:11.047Z,33.35
2018-08-12T16:15:40.367Z,33.16
2018-08-12T16:18:09.976Z,32.55
2018-08-12T16:20:39.038Z,32.68
2018-08-12T16:23:07.994Z,32.66
2018-08-12T16:25:37.017Z,32.85
2018-08-12T16:28:05.953Z,32.17
2018-08-12T16:30:35.201Z,33.54
2018-08-12T16:33:04.171Z,33.50
2018-08-12T16:35:33.627Z,33.20
2018-08-12T16:38:02.499Z,33.83
2018-08-12T16:40:31.310Z,34.36
2018-08-12T16:43:00.563Z,34.63
2018-08-12T16:45:29.748Z,34.82
2018-08-12T16:47:58.602Z,34.21
2018-08-12T16:50:27.528Z,33.77
2018-08-12T16:52:56.411Z,34.35
2018-08-12T16:55:25.604Z,35.13
2018-08-12T17:00:29.151Z,32.47
2018-08-12T17:02:58.074Z,32.39
2018-08-12T17:05:26.949Z,32.25
2018-08-12T17:07:55.807Z,30.86
2018-08-12T17:10:24.765Z,31.76
2018-08-12T17:12:53.608Z,33.33
2018-08-12T17:15:23.765Z,34.99
2018-08-12T17:17:52.683Z,35.67
2018-08-12T17:20:22.239Z,36.92
2018-08-12T17:22:51.799Z,36.91
2018-08-12T17:25:20.607Z,37.08
2018-08-12T17:27:49.383Z,38.59
2018-08-12T17:30:18.984Z,39.14
2018-08-12T17:32:48.856Z,38.36
2018-08-12T17:35:17.919Z,38.47
2018-08-12T17:37:46.890Z,38.37
2018-08-12T17:40:18.895Z,39.11
2018-08-12T17:42:47.918Z,38.93
2018-08-12T17:45:16.899Z,39.80
2018-08-12T17:47:45.887Z,39.46
2018-08-12T17:50:17.080Z,40.07
2018-08-12T17:52:45.965Z,39.60
2018-08-12T17:55:14.859Z,40.03
2018-08-12T17:57:44.013Z,40.42
2018-08-12T18:00:14.737Z,41.99
2018-08-12T18:02:50.485Z,41.65
2018-08-12T18:05:19.330Z,42.04
2018-08-12T18:07:54.978Z,42.59
2018-08-12T18:10:26.425Z,42.59
2018-08-12T18:15:29.673Z,44.79
2018-08-12T18:17:58.970Z,45.66
2018-08-12T18:20:27.786Z,45.99
2018-08-12T18:22:56.657Z,46.22
2018-08-12T18:25:25.485Z,47.38
2018-08-12T18:27:54.367Z,47.41
2018-08-12T18:30:23.401Z,47.17
2018-08-12T18:32:52.674Z,47.65
2018-08-12T18:35:22.387Z,47.01
2018-08-12T18:37:51.804Z,46.94
2018-08-12T18:40:21.910Z,48.90
2018-08-12T18:42:52.071Z,47.96
2018-08-12T18:45:21.859Z,48.89
2018-08-12T18:47:51.661Z,48.70
2018-08-12T18:50:21.724Z,48.25
2018-08-12T18:52:51.962Z,48.78
2018-08-12T18:55:21.840Z,48.16
2018-08-12T18:57:52.956Z,49.05
2018-08-12T19:00:22.238Z,48.75
2018-08-12T19:02:51.971Z,49.18
2018-08-12T19:05:22.042Z,49.31
2018-08-12T19:07:51.925Z,49.42
2018-08-12T19:10:21.978Z,49.15
2018-08-12T19:12:52.025Z,50.19
2018-08-12T19:15:21.911Z,49.93
2018-08-12T19:20:46.046Z,49.65
2018-08-12T19:23:15.060Z,49.33
2018-08-12T19:25:44.078Z,50.88
2018-08-12T19:28:13.173Z,50.49
2018-08-12T19:30:42.101Z,50.94
2018-08-12T19:33:10.997Z,51.77
2018-08-12T19:35:40.260Z,52.13
2018-08-12T19:38:09.204Z,52.16
2018-08-12T19:40:38.253Z,52.78
2018-08-12T19:43:07.436Z,53.68
2018-08-12T19:45:36.928Z,53.66
2018-08-12T19:48:06.119Z,53.30
2018-08-12T19:50:35.759Z,53.19
2018-08-12T19:53:06.334Z,53.37
2018-08-12T19:55:36.110Z,53.15
2018-08-12T19:58:05.240Z,54.48
2018-08-12T20:00:34.084Z,53.44
2018-08-12T20:03:03.196Z,53.73
2018-08-12T20:05:32.137Z,54.60
2018-08-12T20:08:01.564Z,55.42
2018-08-12T20:10:31.835Z,55.15
2018-08-12T20:13:00.807Z,54.14
2018-08-12T20:15:29.712Z,54.74
2018-08-12T20:17:58.621Z,54.36
2018-08-12T20:20:27.732Z,53.95
2018-08-12T20:22:56.784Z,54.88
2018-08-12T20:25:25.760Z,55.09
2018-08-12T20:27:55.084Z,55.82
2018-08-12T20:30:24.281Z,56.04
2018-08-12T20:32:53.319Z,55.28
2018-08-12T20:35:22.717Z,56.29
2018-08-12T20:37:52.914Z,54.87
2018-08-12T20:40:23.046Z,56.17
2018-08-12T20:42:52.873Z,55.35
2018-08-12T20:45:22.760Z,55.76
2018-08-12T20:47:53.185Z,55.04
2018-08-12T20:50:23.098Z,55.50
2018-08-12T20:52:53.014Z,55.39
2018-08-12T20:55:23.059Z,55.51
2018-08-12T20:57:53.136Z,55.46
2018-08-12T21:00:23.014Z,56.61
2018-08-12T21:02:53.144Z,56.68
2018-08-12T21:05:23.080Z,57.29
2018-08-12T21:07:53.256Z,57.11
2018-08-12T21:10:23.293Z,57.60
2018-08-12T21:12:53.625Z,56.73
2018-08-12T21:15:23.232Z,56.02
2018-08-12T21:17:53.369Z,56.70
2018-08-12T21:20:23.562Z,57.39
2018-08-12T21:22:53.113Z,56.64
2018-08-12T21:25:23.217Z,57.46
2018-08-12T21:27:53.632Z,57.49
2018-08-12T21:30:23.591Z,57.65
2018-08-12T21:32:53.564Z,58.15
2018-08-12T21:35:25.654Z,58.05
2018-08-12T21:37:55.064Z,57.94
2018-08-12T21:40:24.946Z,57.46
2018-08-12T21:42:54.244Z,57.91
2018-08-12T21:45:23.517Z,58.46
2018-08-12T21:47:53.836Z,58.96
2018-08-12T21:50:23.536Z,58.50
2018-08-12T21:52:56.807Z,58.81
2018-08-12T21:55:27.955Z,59.02
2018-08-12T21:57:59.247Z,59.22
2018-08-12T22:00:31.655Z,59.27
2018-08-12T22:03:03.743Z,58.71
2018-08-12T22:05:36.137Z,59.28
2018-08-12T22:08:10.264Z,59.87
2018-08-12T22:10:42.735Z,59.10
2018-08-12T22:13:14.081Z,58.80
2018-08-12T22:15:46.171Z,59.49
2018-08-12T22:18:18.308Z,58.55
2018-08-12T22:20:50.156Z,58.48
2018-08-12T22:23:22.791Z,59.86
2018-08-12T22:25:53.968Z,60.17
2018-08-12T22:28:32.071Z,60.18
2018-08-12T22:31:03.335Z,59.98
2018-08-12T22:33:34.549Z,60.23
2018-08-12T22:36:05.934Z,61.11
2018-08-12T22:38:37.388Z,61.30
2018-08-12T22:41:08.634Z,60.63
2018-08-12T22:43:40.383Z,59.68
2018-08-12T22:46:12.092Z,59.27
2018-08-12T22:48:43.741Z,59.85
2018-08-12T22:51:15.813Z,60.82
2018-08-12T22:53:46.946Z,60.12
2018-08-12T22:56:20.413Z,61.26
2018-08-12T22:58:56.616Z,61.67
2018-08-12T23:01:29.435Z,61.17
2018-08-12T23:04:03.003Z,60.91
2018-08-12T23:06:34.272Z,60.12
2018-08-12T23:09:08.511Z,60.78
2018-08-12T23:11:40.550Z,60.23
2018-08-12T23:14:12.703Z,61.34
2018-08-12T23:16:55.084Z,62.06
2018-08-12T23:19:26.761Z,61.19
2018-08-12T23:21:57.970Z,62.36
2018-08-12T23:24:31.469Z,61.46
2018-08-12T23:27:03.011Z,62.06
2018-08-12T23:29:35.992Z,61.18
2018-08-12T23:32:11.753Z,62.57
2018-08-12T23:34:43.844Z,62.32
2018-08-12T23:37:16.975Z,61.88
2018-08-12T23:39:49.015Z,61.86
2018-08-12T23:42:21.628Z,61.52
2018-08-12T23:44:52.876Z,61.13
2018-08-12T23:47:24.203Z,61.30
2018-08-12T23:49:58.683Z,61.36
2018-08-12T23:52:30.188Z,61.37
2018-08-12T23:55:01.528Z,61.45
2018-08-12T23:57:32.561Z,60.71
